Time;durP1;ratioP1;P1;durP2;ratioP2;P2;SDS_P1;SDS_P2;PMS_P1;PMS_P2;Temp;Humidity;BMP_temperature;BMP_pressure;BME280_temperature;BME280_humidity;BME280_pressure;Samples;Min_cycle;Max_cycle;Signal;HPM_P1;HPM_P2
2024/01/15 00:08:20;;;;;;;;;;;1.80;99.90;;;;;;6709564;88;20523;-76
2024/01/15 00:18:20;;;;;;;;;;;1.80;99.90;;;;;;6710184;88;20125;-76
2024/01/15 00:28:21;;;;;;;;;;;1.90;99.90;;;;;;6709816;88;20517;-76
2024/01/15 00:38:21;;;;;;;;;;;1.80;99.90;;;;;;6707740;88;20104;-77
2024/01/15 00:48:22;;;;;;;;;;;1.40;99.90;;;;;;6717370;88;20096;-78
2024/01/15 00:58:22;;;;;;;;;;;1.40;99.90;;;;;;6717114;88;20081;-78
2024/01/15 01:08:23;;;;;;;;;;;1.10;99.90;;;;;;6699637;88;20507;-78
2024/01/15 01:18:23;;;;;;;;;;;1.00;99.90;;;;;;6715987;88;20607;-76
2024/01/15 01:28:24;;;;;;;;;;;1.10;99.90;;;;;;6716842;88;20109;-76
2024/01/15 01:38:24;;;;;;;;;;;1.20;99.90;;;;;;6716043;88;20080;-76
2024/01/15 01:48:25;;;;;;;;;;;1.10;99.90;;;;;;6717590;88;20071;-76
2024/01/15 01:58:26;;;;;;;;;;;0.90;99.90;;;;;;6718022;88;20138;-77
2024/01/15 02:08:26;;;;;;;;;;;0.90;99.90;;;;;;6722692;88;20424;-77
2024/01/15 02:18:27;;;;;;;;;;;1.10;99.90;;;;;;6715925;88;20204;-78
2024/01/15 02:28:28;;;;;;;;;;;1.20;99.90;;;;;;6714971;88;20460;-77
2024/01/15 02:38:28;;;;;;;;;;;1.20;99.90;;;;;;6712686;88;20073;-77
2024/01/15 02:48:28;;;;;;;;;;;1.20;99.90;;;;;;6715806;88;20055;-77
2024/01/15 02:58:29;;;;;;;;;;;1.10;99.90;;;;;;6715185;88;20552;-77
2024/01/15 03:08:29;;;;;;;;;;;1.10;99.90;;;;;;6715085;88;20104;-77
2024/01/15 03:18:30;;;;;;;;;;;1.10;99.90;;;;;;6718366;88;20114;-76
2024/01/15 03:28:30;;;;;;;;;;;1.20;99.90;;;;;;6717344;88;20063;-76
2024/01/15 03:38:31;;;;;;;;;;;1.20;99.90;;;;;;6716058;88;20218;-76
2024/01/15 03:48:31;;;;;;;;;;;1.10;99.90;;;;;;6712319;88;20052;-76
2024/01/15 03:58:31;;;;;;;;;;;1.20;99.90;;;;;;6711074;88;20436;-76
2024/01/15 04:08:32;;;;;;;;;;;1.10;99.90;;;;;;6710172;88;20058;-76
2024/01/15 04:18:32;;;;;;;;;;;1.10;99.90;;;;;;6715079;88;20080;-76
2024/01/15 04:28:33;;;;;;;;;;;1.10;99.90;;;;;;6708445;88;20067;-77
2024/01/15 04:38:36;;;;;;;;;;;1.20;99.90;;;;;;6710886;88;20066;-77
2024/01/15 04:48:36;;;;;;;;;;;1.20;99.90;;;;;;6710806;88;20188;-77
2024/01/15 04:58:37;;;;;;;;;;;1.10;99.90;;;;;;6703441;88;20063;-77
2024/01/15 05:08:37;;;;;;;;;;;1.00;99.90;;;;;;6712519;88;20627;-77
2024/01/15 05:18:38;;;;;;;;;;;1.10;99.90;;;;;;6712694;88;20182;-78
2024/01/15 05:28:40;;;;;;;;;;;1.20;99.90;;;;;;6709543;88;20051;-77
2024/01/15 05:38:40;;;;;;;;;;;1.20;99.90;;;;;;6703117;88;20211;-76
2024/01/15 05:48:41;;;;;;;;;;;1.20;99.90;;;;;;6697775;88;20052;-76
2024/01/15 05:58:41;;;;;;;;;;;1.10;99.90;;;;;;6698072;88;20073;-76
2024/01/15 06:08:42;;;;;;;;;;;1.10;99.90;;;;;;6697804;88;20137;-76
2024/01/15 06:18:42;;;;;;;;;;;1.10;99.90;;;;;;6698016;88;20190;-78
2024/01/15 06:28:43;;;;;;;;;;;1.10;99.90;;;;;;6693131;88;20055;-77
2024/01/15 06:38:44;;;;;;;;;;;1.10;99.90;;;;;;6697251;88;20067;-77
2024/01/15 06:48:44;;;;;;;;;;;1.00;99.90;;;;;;6698363;88;20515;-77
2024/01/15 06:58:45;;;;;;;;;;;1.10;99.90;;;;;;6697982;88;20059;-77
2024/01/15 07:08:45;;;;;;;;;;;1.10;99.90;;;;;;6695673;88;20659;-78
2024/01/15 07:18:46;;;;;;;;;;;1.00;99.90;;;;;;6698983;88;20107;-77
2024/01/15 07:28:46;;;;;;;;;;;1.00;99.90;;;;;;6699538;88;20555;-77
2024/01/15 07:38:47;;;;;;;;;;;1.10;99.90;;;;;;6710783;88;20075;-77
2024/01/15 07:48:47;;;;;;;;;;;1.20;99.90;;;;;;6719226;88;20216;-77
2024/01/15 07:58:48;;;;;;;;;;;1.20;99.90;;;;;;6720147;88;20261;-76
2024/01/15 08:08:48;;;;;;;;;;;1.30;99.90;;;;;;6716838;88;20082;-75
2024/01/15 08:18:49;;;;;;;;;;;1.40;99.90;;;;;;6715163;88;20593;-75
2024/01/15 08:28:49;;;;;;;;;;;1.40;99.90;;;;;;6715615;88;20114;-75
2024/01/15 08:38:50;;;;;;;;;;;1.40;99.90;;;;;;6714213;88;20083;-78
2024/01/15 08:48:51;;;;;;;;;;;1.60;99.90;;;;;;6712192;88;20095;-76
2024/01/15 08:58:51;;;;;;;;;;;1.70;99.90;;;;;;6710565;88;20071;-76
2024/01/15 09:08:52;;;;;;;;;;;1.70;99.90;;;;;;6713775;88;20146;-76
2024/01/15 09:18:52;;;;;;;;;;;1.80;99.90;;;;;;6711712;88;20107;-76
2024/01/15 09:28:52;;;;;;;;;;;1.80;99.90;;;;;;6711660;88;20048;-76
2024/01/15 09:38:53;;;;;;;;;;;1.90;99.90;;;;;;6710849;88;20525;-76
2024/01/15 09:48:53;;;;;;;;;;;1.80;99.90;;;;;;6718205;88;20598;-76
2024/01/15 09:58:54;;;;;;;;;;;1.80;99.90;;;;;;6708926;88;20130;-75
2024/01/15 10:08:56;;;;;;;;;;;1.60;99.90;;;;;;6715299;88;20076;-77
2024/01/15 10:18:56;;;;;;;;;;;1.20;99.90;;;;;;6708839;88;20067;-76
2024/01/15 10:28:58;;;;;;;;;;;1.00;99.90;;;;;;6708569;88;20076;-77
2024/01/15 10:38:59;;;;;;;;;;;1.00;99.90;;;;;;6711811;88;20075;-77
2024/01/15 10:49:00;;;;;;;;;;;1.20;99.90;;;;;;6713247;88;20162;-76
2024/01/15 10:59:00;;;;;;;;;;;1.20;99.90;;;;;;6713616;88;20078;-76
2024/01/15 11:09:03;;;;;;;;;;;1.10;99.90;;;;;;6712504;88;20112;-77
2024/01/15 11:19:06;;;;;;;;;;;1.20;99.90;;;;;;6709315;88;20073;-77
2024/01/15 11:29:30;;;;;;;;;;;1.00;99.90;;;;;;6710100;88;20585;-76
2024/01/15 11:39:30;;;;;;;;;;;0.90;99.90;;;;;;6727388;77;20520;-75
2024/01/15 11:49:36;;;;;;;;;;;0.90;99.90;;;;;;6740024;88;20085;-75
2024/01/15 11:59:37;;;;;;;;;;;1.10;99.90;;;;;;6746142;88;20481;-75
2024/01/15 12:09:43;;;;;;;;;;;0.90;99.90;;;;;;6731680;88;20062;-75
2024/01/15 12:19:43;;;;;;;;;;;1.20;99.90;;;;;;6734543;88;20668;-75
2024/01/15 12:29:43;;;;;;;;;;;1.40;99.90;;;;;;6737780;88;20111;-75
2024/01/15 12:39:44;;;;;;;;;;;1.40;99.90;;;;;;6734465;88;20097;-74
2024/01/15 12:49:53;;;;;;;;;;;1.60;99.90;;;;;;6734592;88;20188;-75
2024/01/15 12:59:54;;;;;;;;;;;1.60;99.90;;;;;;6738034;88;20074;-75
2024/01/15 13:09:54;;;;;;;;;;;1.90;99.90;;;;;;6733476;88;20591;-75
2024/01/15 13:19:55;;;;;;;;;;;1.90;99.90;;;;;;6733875;88;20084;-75
2024/01/15 13:29:55;;;;;;;;;;;1.90;99.90;;;;;;6736624;88;20076;-75
2024/01/15 13:39:56;;;;;;;;;;;2.10;99.90;;;;;;6731906;88;20205;-75
2024/01/15 13:49:56;;;;;;;;;;;2.00;99.90;;;;;;6733636;88;20051;-75
2024/01/15 13:59:57;;;;;;;;;;;1.90;99.90;;;;;;6733070;88;20061;-75
2024/01/15 14:09:57;;;;;;;;;;;1.80;99.90;;;;;;6735489;88;20107;-75
2024/01/15 14:19:58;;;;;;;;;;;1.80;99.90;;;;;;6729012;88;20096;-76
2024/01/15 14:29:59;;;;;;;;;;;1.80;99.90;;;;;;6730759;88;20058;-76
2024/01/15 14:39:59;;;;;;;;;;;1.70;99.90;;;;;;6736020;88;20058;-76
2024/01/15 14:50:00;;;;;;;;;;;1.60;99.90;;;;;;6732235;88;20654;-76
2024/01/15 15:00:00;;;;;;;;;;;1.50;99.90;;;;;;6738820;88;20070;-75
2024/01/15 15:10:01;;;;;;;;;;;1.40;99.90;;;;;;6737409;88;20067;-75
2024/01/15 15:20:02;;;;;;;;;;;1.20;99.90;;;;;;6741840;88;20430;-75
2024/01/15 15:30:03;;;;;;;;;;;1.10;99.90;;;;;;6732703;88;20152;-75
2024/01/15 15:40:08;;;;;;;;;;;1.20;99.90;;;;;;6731106;88;20098;-75
2024/01/15 15:50:08;;;;;;;;;;;1.20;99.90;;;;;;6730680;88;20474;-75
2024/01/15 16:00:09;;;;;;;;;;;1.20;99.90;;;;;;6731106;88;20096;-76
2024/01/15 16:10:09;;;;;;;;;;;1.10;99.90;;;;;;6729688;88;20114;-75
2024/01/15 16:20:10;;;;;;;;;;;1.00;99.90;;;;;;6740680;88;20058;-75
2024/01/15 16:30:11;;;;;;;;;;;1.10;99.90;;;;;;6743379;88;20083;-77
2024/01/15 16:40:11;;;;;;;;;;;1.00;99.90;;;;;;6735749;88;20086;-76
2024/01/15 16:50:12;;;;;;;;;;;1.00;99.90;;;;;;6748011;88;20076;-76
2024/01/15 17:00:12;;;;;;;;;;;1.00;99.90;;;;;;6746390;88;20103;-76
2024/01/15 17:10:13;;;;;;;;;;;1.10;99.90;;;;;;6736992;88;20762;-77
2024/01/15 17:20:14;;;;;;;;;;;1.00;99.90;;;;;;6735813;88;20059;-77
2024/01/15 17:30:15;;;;;;;;;;;1.00;99.90;;;;;;6728631;88;20491;-75
2024/01/15 17:50:25;;;;;;;;;;;0.90;99.90;;;;;;6699349;88;20106;-76
2024/01/15 18:00:25;;;;;;;;;;;0.80;99.90;;;;;;6705784;88;20141;-77
2024/01/15 18:10:26;;;;;;;;;;;0.70;99.90;;;;;;6699950;88;20081;-77
2024/01/15 18:20:27;;;;;;;;;;;0.90;99.90;;;;;;6694123;88;20495;-77
2024/01/15 18:30:27;;;;;;;;;;;0.80;99.90;;;;;;6696101;88;20072;-76
2024/01/15 18:40:32;;;;;;;;;;;0.70;99.90;;;;;;6695134;88;20617;-77
2024/01/15 18:50:32;;;;;;;;;;;0.80;99.90;;;;;;6693568;88;20150;-75
2024/01/15 19:00:33;;;;;;;;;;;0.80;99.90;;;;;;6694833;88;20196;-75
2024/01/15 19:10:33;;;;;;;;;;;0.90;99.90;;;;;;6697397;88;20059;-75
2024/01/15 19:20:34;;;;;;;;;;;0.90;99.90;;;;;;6692655;88;20520;-75
2024/01/15 19:30:34;;;;;;;;;;;0.90;99.90;;;;;;6696697;88;20043;-76
2024/01/15 19:40:35;;;;;;;;;;;0.70;99.90;;;;;;6696602;88;20061;-76
2024/01/15 19:50:35;;;;;;;;;;;0.70;99.90;;;;;;6695797;88;20208;-76
2024/01/15 20:00:36;;;;;;;;;;;0.60;99.90;;;;;;6696064;88;20064;-75
2024/01/15 20:10:38;;;;;;;;;;;0.80;99.90;;;;;;6697188;88;20137;-76
2024/01/15 20:20:41;;;;;;;;;;;0.70;99.90;;;;;;6697575;88;20084;-77
2024/01/15 20:30:41;;;;;;;;;;;0.70;99.90;;;;;;6695987;88;20626;-78
2024/01/15 20:40:42;;;;;;;;;;;0.70;99.90;;;;;;6695158;88;20237;-77
2024/01/15 20:50:42;;;;;;;;;;;0.70;99.90;;;;;;6696708;88;20065;-76
2024/01/15 21:00:43;;;;;;;;;;;0.60;99.90;;;;;;6695890;88;20081;-75
2024/01/15 21:10:43;;;;;;;;;;;0.70;99.90;;;;;;6694595;88;20091;-76
2024/01/15 21:20:43;;;;;;;;;;;0.80;99.90;;;;;;6693407;88;20069;-75
2024/01/15 21:30:46;;;;;;;;;;;0.90;99.90;;;;;;6695873;88;20067;-76
2024/01/15 21:40:46;;;;;;;;;;;0.90;99.90;;;;;;6696161;88;20945;-75
2024/01/15 21:50:47;;;;;;;;;;;0.90;99.90;;;;;;6694084;88;20206;-76
2024/01/15 22:00:47;;;;;;;;;;;1.00;99.90;;;;;;6697872;88;20203;-76
2024/01/15 22:10:48;;;;;;;;;;;0.80;99.90;;;;;;6696509;88;20142;-76
2024/01/15 22:20:48;;;;;;;;;;;0.80;99.90;;;;;;6693956;88;20120;-76
2024/01/15 22:30:48;;;;;;;;;;;0.80;99.90;;;;;;6697552;88;20575;-75
2024/01/15 22:40:49;;;;;;;;;;;0.90;99.90;;;;;;6703832;88;20079;-76
2024/01/15 22:50:50;;;;;;;;;;;1.10;99.90;;;;;;6697833;88;20043;-75
2024/01/15 23:00:50;;;;;;;;;;;1.10;99.90;;;;;;6697859;88;20060;-76
2024/01/15 23:10:51;;;;;;;;;;;1.20;99.90;;;;;;6700045;88;20497;-75
2024/01/15 23:20:51;;;;;;;;;;;1.20;99.90;;;;;;6699411;88;20056;-75
2024/01/15 23:30:52;;;;;;;;;;;1.20;99.90;;;;;;6696931;88;20117;-76
2024/01/15 23:40:53;;;;;;;;;;;1.20;99.90;;;;;;6676894;77;21004;-74
2024/01/15 23:50:53;;;;;;;;;;;1.10;99.90;;;;;;6648461;88;20058;-73
